SVMG/PMV METAR and TAF weather

Enter ICAO airport designator
Station Type Date Time Source
SVMG METAR 2018/12/13 21:00 UTC NOAA

SVMG 132100Z /////KT 9999 FEW010 30/24 Q1013 NOSIG


Station Type Date Time Source
SVMG Decoded METAR 2018/12/13 21:00 UTC NOAA

Margarita / Del Carib, Venezuela (SVMG) 10-55N 063-59W
Dec 13, 2018 - 04:00 PM EST / 2018.12.13 2100 UTC
Visibility: greater than 7 mile(s):0
Sky conditions: mostly clear
Temperature: 86 F (30 C)
Heat index: 95.0 F (35.0 C):1
Dew Point: 75 F (24 C)
Relative Humidity: 70%
Pressure (altimeter): 29.91 in. Hg (1013 hPa)
ob: SVMG 132100Z /////KT 9999 FEW010 30/24 Q1013 NOSIG
cycle: 21

Station Type Date Time Source
SVMG TAF 2018/12/13 18:04 UTC NOAA

TAF SVMG 131600Z 1318/1418 09010KT 9999 FEW010 TX33/1800Z TN24/0900Z
BECMG 1318/1322 08013KT SCT010


Example: see airport list